sensor_id;sensor_type;location;lat;lon;timestamp;pressure;altitude;pressure_sealevel;temperature;humidity
83563;BME280;73535;52.500;13.482;2024-03-23T00:53:48;100435.72;;;8.66;81.22
83563;BME280;73535;52.500;13.482;2024-03-23T00:56:14;100426.06;;;8.66;80.91
83563;BME280;73535;52.500;13.482;2024-03-23T00:58:39;100421.69;;;8.67;81.13
83563;BME280;73535;52.500;13.482;2024-03-23T01:01:04;100415.59;;;8.66;80.89
83563;BME280;73535;52.500;13.482;2024-03-23T01:03:30;100417.38;;;8.66;81.19
83563;BME280;73535;52.500;13.482;2024-03-23T01:05:59;100416.44;;;8.67;80.71
83563;BME280;73535;52.500;13.482;2024-03-23T01:08:24;100407.66;;;8.68;80.91
83563;BME280;73535;52.500;13.482;2024-03-23T01:11:00;100413.81;;;8.67;81.42
83563;BME280;73535;52.500;13.482;2024-03-23T01:13:26;100422.53;;;8.67;81.46
83563;BME280;73535;52.500;13.482;2024-03-23T01:15:53;100415.41;;;8.69;81.50
83563;BME280;73535;52.500;13.482;2024-03-23T01:18:19;100423.38;;;8.68;80.67
83563;BME280;73535;52.500;13.482;2024-03-23T01:20:45;100412.06;;;8.67;80.65
83563;BME280;73535;52.500;13.482;2024-03-23T01:23:11;100405.97;;;8.67;80.96
83563;BME280;73535;52.500;13.482;2024-03-23T01:25:36;100411.22;;;8.67;80.74
83563;BME280;73535;52.500;13.482;2024-03-23T01:28:01;100405.97;;;8.67;81.00
83563;BME280;73535;52.500;13.482;2024-03-23T01:30:26;100403.34;;;8.67;80.61
83563;BME280;73535;52.500;13.482;2024-03-23T01:32:51;100394.84;;;8.63;80.65
83563;BME280;73535;52.500;13.482;2024-03-23T01:35:17;100393.16;;;8.62;80.74
83563;BME280;73535;52.500;13.482;2024-03-23T01:37:42;100394.00;;;8.63;80.77
83563;BME280;73535;52.500;13.482;2024-03-23T01:40:07;100394.00;;;8.63;80.62
83563;BME280;73535;52.500;13.482;2024-03-23T01:42:33;100368.25;;;8.69;80.72
83563;BME280;73535;52.500;13.482;2024-03-23T01:44:58;100360.38;;;8.69;80.54
83563;BME280;73535;52.500;13.482;2024-03-23T01:47:23;100340.78;;;8.75;80.90
83563;BME280;73535;52.500;13.482;2024-03-23T01:49:48;100334.72;;;8.74;80.85
83563;BME280;73535;52.500;13.482;2024-03-23T01:52:14;100333.88;;;8.74;80.81
83563;BME280;73535;52.500;13.482;2024-03-23T01:54:40;100332.94;;;8.75;81.14
83563;BME280;73535;52.500;13.482;2024-03-23T01:57:05;100336.81;;;8.69;81.41
83563;BME280;73535;52.500;13.482;2024-03-23T01:59:30;100323.81;;;8.68;81.51
83563;BME280;73535;52.500;13.482;2024-03-23T02:01:56;100336.81;;;8.69;81.33
83563;BME280;73535;52.500;13.482;2024-03-23T02:04:21;100335.22;;;8.67;81.51
83563;BME280;73535;52.500;13.482;2024-03-23T02:06:46;100327.38;;;8.67;81.76
83563;BME280;73535;52.500;13.482;2024-03-23T02:09:12;100323.81;;;8.68;81.51
83563;BME280;73535;52.500;13.482;2024-03-23T02:11:37;100327.16;;;8.70;81.62
83563;BME280;73535;52.500;13.482;2024-03-23T02:14:02;100333.47;;;8.67;81.83
83563;BME280;73535;52.500;13.482;2024-03-23T02:16:27;100337.66;;;8.70;81.86
83563;BME280;73535;52.500;13.482;2024-03-23T02:18:52;100323.81;;;8.68;81.65
83563;BME280;73535;52.500;13.482;2024-03-23T02:21:18;100330.84;;;8.67;81.95
83563;BME280;73535;52.500;13.482;2024-03-23T02:23:43;100335.97;;;8.69;82.31
83563;BME280;73535;52.500;13.482;2024-03-23T02:26:08;100334.31;;;8.68;82.01
83563;BME280;73535;52.500;13.482;2024-03-23T02:28:33;100327.38;;;8.67;81.87
83563;BME280;73535;52.500;13.482;2024-03-23T02:30:59;100322.22;;;8.65;81.65
83563;BME280;73535;52.500;13.482;2024-03-23T02:33:26;100312.09;;;8.73;81.77
83563;BME280;73535;52.500;13.482;2024-03-23T02:35:56;100308.84;;;8.70;81.57
83563;BME280;73535;52.500;13.482;2024-03-23T02:38:21;100306.22;;;8.70;81.44
83563;BME280;73535;52.500;13.482;2024-03-23T02:40:46;100298.34;;;8.70;81.58
83563;BME280;73535;52.500;13.482;2024-03-23T02:43:12;100296.59;;;8.70;81.66
83563;BME280;73535;52.500;13.482;2024-03-23T02:45:37;100292.16;;;8.71;81.56
83563;BME280;73535;52.500;13.482;2024-03-23T02:48:02;100280.88;;;8.70;81.51
83563;BME280;73535;52.500;13.482;2024-03-23T02:50:28;100275.50;;;8.72;81.48
83563;BME280;73535;52.500;13.482;2024-03-23T02:52:54;100274.56;;;8.73;81.47
83563;BME280;73535;52.500;13.482;2024-03-23T02:55:19;100277.06;;;8.74;81.85
83563;BME280;73535;52.500;13.482;2024-03-23T02:57:44;100279.59;;;8.76;82.90
83563;BME280;73535;52.500;13.482;2024-03-23T03:00:10;100267.44;;;8.75;82.65
83563;BME280;73535;52.500;13.482;2024-03-23T03:02:36;100266.50;;;8.76;82.30
83563;BME280;73535;52.500;13.482;2024-03-23T03:05:02;100272.88;;;8.72;82.36
83563;BME280;73535;52.500;13.482;2024-03-23T03:07:29;100277.69;;;8.65;82.19
83563;BME280;73535;52.500;13.482;2024-03-23T03:09:55;100276.13;;;8.63;82.35
83563;BME280;73535;52.500;13.482;2024-03-23T03:12:20;100264.72;;;8.64;82.59
83563;BME280;73535;52.500;13.482;2024-03-23T03:14:45;100269.22;;;8.62;82.05
83563;BME280;73535;52.500;13.482;2024-03-23T03:17:10;100272.25;;;8.56;82.30
83563;BME280;73535;52.500;13.482;2024-03-23T03:19:36;100264.91;;;8.61;82.73
83563;BME280;73535;52.500;13.482;2024-03-23T03:22:01;100264.06;;;8.60;82.81
83563;BME280;73535;52.500;13.482;2024-03-23T03:24:26;100248.47;;;8.59;83.20
83563;BME280;73535;52.500;13.482;2024-03-23T03:26:51;100247.72;;;8.57;83.07
83563;BME280;73535;52.500;13.482;2024-03-23T03:29:17;100254.84;;;8.55;83.37
83563;BME280;73535;52.500;13.482;2024-03-23T03:31:45;100251.59;;;8.51;82.99
83563;BME280;73535;52.500;13.482;2024-03-23T03:34:10;100252.44;;;8.51;83.06
83563;BME280;73535;52.500;13.482;2024-03-23T03:36:35;100242.69;;;8.53;83.26
83563;BME280;73535;52.500;13.482;2024-03-23T03:39:01;100231.81;;;8.47;83.58
83563;BME280;73535;52.500;13.482;2024-03-23T03:41:28;100238.91;;;8.45;83.55
83563;BME280;73535;52.500;13.482;2024-03-23T03:43:53;100232.34;;;8.52;83.57
83563;BME280;73535;52.500;13.482;2024-03-23T03:46:20;100232.41;;;8.50;83.80
83563;BME280;73535;52.500;13.482;2024-03-23T03:48:45;100223.84;;;8.48;83.68
83563;BME280;73535;52.500;13.482;2024-03-23T03:51:12;100229.09;;;8.48;84.29
83563;BME280;73535;52.500;13.482;2024-03-23T03:53:38;100234.72;;;8.42;84.42
83563;BME280;73535;52.500;13.482;2024-03-23T03:56:03;100241.84;;;8.40;84.35
83563;BME280;73535;52.500;13.482;2024-03-23T03:58:28;100233.69;;;8.32;83.31
83563;BME280;73535;52.500;13.482;2024-03-23T04:00:53;100231.66;;;8.23;82.99
83563;BME280;73535;52.500;13.482;2024-03-23T04:03:19;100231.53;;;8.25;82.63
83563;BME280;73535;52.500;13.482;2024-03-23T04:05:52;100223.06;;;8.21;82.17
83563;BME280;73535;52.500;13.482;2024-03-23T04:08:18;100219.81;;;8.18;81.73
83563;BME280;73535;52.500;13.482;2024-03-23T04:10:43;100212.44;;;8.10;81.81
83563;BME280;73535;52.500;13.482;2024-03-23T04:13:09;100207.41;;;8.07;82.27
83563;BME280;73535;52.500;13.482;2024-03-23T04:15:34;100207.31;;;8.09;82.71
83563;BME280;73535;52.500;13.482;2024-03-23T04:17:59;100203.34;;;8.03;83.26
83563;BME280;73535;52.500;13.482;2024-03-23T04:20:24;100204.88;;;7.93;82.88
83563;BME280;73535;52.500;13.482;2024-03-23T04:22:50;100208.44;;;7.92;82.33
83563;BME280;73535;52.500;13.482;2024-03-23T04:25:15;100222.13;;;7.83;83.11
83563;BME280;73535;52.500;13.482;2024-03-23T04:27:40;100225.53;;;7.71;82.70
83563;BME280;73535;52.500;13.482;2024-03-23T04:30:07;100214.22;;;7.70;82.99
83563;BME280;73535;52.500;13.482;2024-03-23T04:32:39;100218.28;;;7.62;82.51
83563;BME280;73535;52.500;13.482;2024-03-23T04:35:05;100218.41;;;7.60;83.09
83563;BME280;73535;52.500;13.482;2024-03-23T04:37:37;100221.75;;;7.62;83.03
83563;BME280;73535;52.500;13.482;2024-03-23T04:40:03;100222.66;;;7.61;83.45
83563;BME280;73535;52.500;13.482;2024-03-23T04:42:28;100218.41;;;7.60;83.87
83563;BME280;73535;52.500;13.482;2024-03-23T04:44:53;100206.53;;;7.55;84.29
83563;BME280;73535;52.500;13.482;2024-03-23T04:47:19;100206.44;;;7.56;83.83
83563;BME280;73535;52.500;13.482;2024-03-23T04:49:44;100196.06;;;7.55;84.09
83563;BME280;73535;52.500;13.482;2024-03-23T04:52:09;100189.19;;;7.54;84.26
83563;BME280;73535;52.500;13.482;2024-03-23T04:54:34;100175.66;;;7.47;84.22
83563;BME280;73535;52.500;13.482;2024-03-23T04:57:00;100181.34;;;7.54;83.90
83563;BME280;73535;52.500;13.482;2024-03-23T04:59:25;100179.13;;;7.48;84.26
83563;BME280;73535;52.500;13.482;2024-03-23T05:01:50;100170.34;;;7.49;84.14
83563;BME280;73535;52.500;13.482;2024-03-23T05:04:15;100174.81;;;7.47;84.17
83563;BME280;73535;52.500;13.482;2024-03-23T05:06:41;100175.22;;;7.40;83.87
83563;BME280;73535;52.500;13.482;2024-03-23T05:09:06;100182.50;;;7.35;83.10
83563;BME280;73535;52.500;13.482;2024-03-23T05:11:32;100174.97;;;7.31;83.01
83563;BME280;73535;52.500;13.482;2024-03-23T05:13:58;100171.78;;;7.26;83.05
83563;BME280;73535;52.500;13.482;2024-03-23T05:16:23;100177.88;;;7.26;83.28
83563;BME280;73535;52.500;13.482;2024-03-23T05:18:48;100181.22;;;7.28;83.79
83563;BME280;73535;52.500;13.482;2024-03-23T05:21:13;100174.88;;;7.32;83.95
83563;BME280;73535;52.500;13.482;2024-03-23T05:23:39;100170.38;;;7.34;83.59
83563;BME280;73535;52.500;13.482;2024-03-23T05:26:04;100165.97;;;7.35;83.67
83563;BME280;73535;52.500;13.482;2024-03-23T05:28:29;100164.72;;;7.28;84.12
83563;BME280;73535;52.500;13.482;2024-03-23T05:30:55;100160.53;;;7.25;83.84
83563;BME280;73535;52.500;13.482;2024-03-23T05:33:22;100163.03;;;7.27;83.96
83563;BME280;73535;52.500;13.482;2024-03-23T05:35:56;100160.09;;;7.31;83.70
83563;BME280;73535;52.500;13.482;2024-03-23T05:38:21;100157.69;;;7.28;83.73
83563;BME280;73535;52.500;13.482;2024-03-23T05:40:54;100156.56;;;7.32;84.02
83563;BME280;73535;52.500;13.482;2024-03-23T05:43:20;100137.03;;;7.38;83.91
83563;BME280;73535;52.500;13.482;2024-03-23T05:45:45;100142.56;;;7.33;83.73
83563;BME280;73535;52.500;13.482;2024-03-23T05:48:10;100131.34;;;7.31;83.55
83563;BME280;73535;52.500;13.482;2024-03-23T05:50:35;100132.31;;;7.30;83.56
83563;BME280;73535;52.500;13.482;2024-03-23T05:53:01;100130.53;;;7.31;83.63
83563;BME280;73535;52.500;13.482;2024-03-23T05:55:26;100121.28;;;7.39;83.65
83563;BME280;73535;52.500;13.482;2024-03-23T05:57:52;100112.47;;;7.40;83.61
83563;BME280;73535;52.500;13.482;2024-03-23T06:00:17;100113.97;;;7.45;83.85
83563;BME280;73535;52.500;13.482;2024-03-23T06:02:43;100115.44;;;7.49;83.29
83563;BME280;73535;52.500;13.482;2024-03-23T06:05:11;100109.91;;;7.53;83.48
83563;BME280;73535;52.500;13.482;2024-03-23T06:07:37;100099.84;;;7.47;83.37
83563;BME280;73535;52.500;13.482;2024-03-23T06:10:02;100094.63;;;7.47;84.02
83563;BME280;73535;52.500;13.482;2024-03-23T06:12:27;100094.81;;;7.44;83.56
83563;BME280;73535;52.500;13.482;2024-03-23T06:14:53;100094.72;;;7.46;84.07
83563;BME280;73535;52.500;13.482;2024-03-23T06:17:18;100081.88;;;7.55;83.54
83563;BME280;73535;52.500;13.482;2024-03-23T06:19:43;100073.81;;;7.58;83.65
83563;BME280;73535;52.500;13.482;2024-03-23T06:22:08;100074.47;;;7.62;83.54
83563;BME280;73535;52.500;13.482;2024-03-23T06:24:34;100071.44;;;7.68;83.65
83563;BME280;73535;52.500;13.482;2024-03-23T06:26:59;100074.97;;;7.67;83.45
83563;BME280;73535;52.500;13.482;2024-03-23T06:29:24;100061.06;;;7.66;83.81
83563;BME280;73535;52.500;13.482;2024-03-23T06:31:55;100065.16;;;7.70;84.11
83563;BME280;73535;52.500;13.482;2024-03-23T06:34:21;100070.59;;;7.67;83.83
83563;BME280;73535;52.500;13.482;2024-03-23T06:36:48;100077.19;;;7.73;83.61
83563;BME280;73535;52.500;13.482;2024-03-23T06:39:14;100071.03;;;7.74;83.35
83563;BME280;73535;52.500;13.482;2024-03-23T06:41:51;100064.09;;;7.73;83.15
83563;BME280;73535;52.500;13.482;2024-03-23T06:44:17;100058.16;;;7.71;84.38
83563;BME280;73535;52.500;13.482;2024-03-23T06:46:42;100051.25;;;7.70;83.91
83563;BME280;73535;52.500;13.482;2024-03-23T06:49:08;100042.88;;;7.65;84.03
83563;BME280;73535;52.500;13.482;2024-03-23T06:51:33;100044.56;;;7.66;83.55
83563;BME280;73535;52.500;13.482;2024-03-23T06:53:58;100038.28;;;7.68;83.46
83563;BME280;73535;52.500;13.482;2024-03-23T06:56:23;100046.56;;;7.75;83.53
83563;BME280;73535;52.500;13.482;2024-03-23T06:58:49;100034.63;;;7.71;83.54
83563;BME280;73535;52.500;13.482;2024-03-23T07:01:14;100032.22;;;7.68;82.75
83563;BME280;73535;52.500;13.482;2024-03-23T07:03:40;100035.13;;;7.63;82.53
83563;BME280;73535;52.500;13.482;2024-03-23T07:06:05;100032.00;;;7.71;82.87
83563;BME280;73535;52.500;13.482;2024-03-23T07:08:30;100036.19;;;7.73;83.45
83563;BME280;73535;52.500;13.482;2024-03-23T07:10:56;100034.06;;;7.53;82.24
83563;BME280;73535;52.500;13.482;2024-03-23T07:13:21;100027.38;;;7.62;82.56
83563;BME280;73535;52.500;13.482;2024-03-23T07:15:53;100027.28;;;7.63;82.61
83563;BME280;73535;52.500;13.482;2024-03-23T07:18:20;100019.13;;;7.68;82.27
83563;BME280;73535;52.500;13.482;2024-03-23T07:20:52;100027.47;;;7.48;81.46
83563;BME280;73535;52.500;13.482;2024-03-23T07:23:17;100026.00;;;7.31;81.95
83563;BME280;73535;52.500;13.482;2024-03-23T07:25:43;100027.13;;;7.27;82.04
83563;BME280;73535;52.500;13.482;2024-03-23T07:28:08;100022.81;;;7.26;81.35
83563;BME280;73535;52.500;13.482;2024-03-23T07:30:33;100023.66;;;7.26;82.23
83563;BME280;73535;52.500;13.482;2024-03-23T07:32:58;100014.91;;;7.27;81.90
83563;BME280;73535;52.500;13.482;2024-03-23T07:35:24;100015.38;;;7.20;81.20
83563;BME280;73535;52.500;13.482;2024-03-23T07:37:49;100020.41;;;7.23;81.90
83563;BME280;73535;52.500;13.482;2024-03-23T07:40:14;100024.00;;;7.34;82.41
83563;BME280;73535;52.500;13.482;2024-03-23T07:42:39;100025.88;;;7.32;81.33
83563;BME280;73535;52.500;13.482;2024-03-23T07:45:05;100024.75;;;7.36;81.03
83563;BME280;73535;52.500;13.482;2024-03-23T07:47:30;100017.03;;;7.48;80.80
83563;BME280;73535;52.500;13.482;2024-03-23T07:49:56;100017.75;;;7.50;81.17
83563;BME280;73535;52.500;13.482;2024-03-23T07:52:21;100012.63;;;7.61;80.99
83563;BME280;73535;52.500;13.482;2024-03-23T07:54:46;100020.69;;;7.58;80.76
83563;BME280;73535;52.500;13.482;2024-03-23T07:57:12;100013.69;;;7.46;79.77
83563;BME280;73535;52.500;13.482;2024-03-23T07:59:37;100008.66;;;7.43;79.76
83563;BME280;73535;52.500;13.482;2024-03-23T08:02:02;100001.03;;;7.39;79.67
83563;BME280;73535;52.500;13.482;2024-03-23T08:04:28;100000.63;;;7.46;80.31
83563;BME280;73535;52.500;13.482;2024-03-23T08:06:54;100005.00;;;7.58;80.09
83563;BME280;73535;52.500;13.482;2024-03-23T08:09:19;100000.63;;;7.46;79.21
83563;BME280;73535;52.500;13.482;2024-03-23T08:11:44;100001.09;;;7.38;80.00
83563;BME280;73535;52.500;13.482;2024-03-23T08:14:11;99996.72;;;7.38;79.39
83563;BME280;73535;52.500;13.482;2024-03-23T08:16:36;99994.50;;;7.32;79.68
83563;BME280;73535;52.500;13.482;2024-03-23T08:19:02;99992.84;;;7.31;80.07
83563;BME280;73535;52.500;13.482;2024-03-23T08:21:29;99984.28;;;7.42;81.01
83563;BME280;73535;52.500;13.482;2024-03-23T08:23:54;99978.22;;;7.42;81.35
83563;BME280;73535;52.500;13.482;2024-03-23T08:26:19;99976.84;;;7.23;81.04
83563;BME280;73535;52.500;13.482;2024-03-23T08:28:44;99985.00;;;7.31;81.01
83563;BME280;73535;52.500;13.482;2024-03-23T08:31:11;99987.88;;;7.14;80.94
83563;BME280;73535;52.500;13.482;2024-03-23T08:33:37;99979.88;;;7.30;81.81
83563;BME280;73535;52.500;13.482;2024-03-23T08:36:04;99978.00;;;7.19;81.70
83563;BME280;73535;52.500;13.482;2024-03-23T08:38:30;99985.19;;;7.16;82.16
83563;BME280;73535;52.500;13.482;2024-03-23T08:40:59;99990.19;;;7.06;81.62
83563;BME280;73535;52.500;13.482;2024-03-23T08:43:25;99978.66;;;6.96;81.65
83563;BME280;73535;52.500;13.482;2024-03-23T08:45:50;99975.03;;;6.99;81.61
83563;BME280;73535;52.500;13.482;2024-03-23T08:48:15;99992.13;;;6.90;80.96
83563;BME280;73535;52.500;13.482;2024-03-23T08:50:41;99982.72;;;6.88;80.78
83563;BME280;73535;52.500;13.482;2024-03-23T08:53:06;99982.28;;;6.94;80.92
83563;BME280;73535;52.500;13.482;2024-03-23T08:55:31;99980.84;;;6.90;80.44
83563;BME280;73535;52.500;13.482;2024-03-23T08:57:56;99985.22;;;6.89;80.71
83563;BME280;73535;52.500;13.482;2024-03-23T09:00:22;99984.38;;;6.89;80.99
83563;BME280;73535;52.500;13.482;2024-03-23T09:02:48;99973.28;;;6.85;81.42
83563;BME280;73535;52.500;13.482;2024-03-23T09:05:13;99979.88;;;6.78;81.40
83563;BME280;73535;52.500;13.482;2024-03-23T09:07:38;99988.88;;;6.60;81.45
83563;BME280;73535;52.500;13.482;2024-03-23T09:10:03;99987.78;;;6.76;81.25
83563;BME280;73535;52.500;13.482;2024-03-23T09:12:28;99989.38;;;6.79;80.85
83563;BME280;73535;52.500;13.482;2024-03-23T09:14:54;99995.34;;;6.81;80.90
83563;BME280;73535;52.500;13.482;2024-03-23T09:17:19;100003.06;;;6.42;80.16
83563;BME280;73535;52.500;13.482;2024-03-23T09:19:44;100004.69;;;6.30;80.40
83563;BME280;73535;52.500;13.482;2024-03-23T09:22:09;100001.25;;;6.30;80.78
83563;BME280;73535;52.500;13.482;2024-03-23T09:24:35;100019.72;;;6.27;80.76
83563;BME280;73535;52.500;13.482;2024-03-23T09:27:00;100017.31;;;6.09;79.72
83563;BME280;73535;52.500;13.482;2024-03-23T09:29:25;100025.69;;;6.00;80.20
83563;BME280;73535;52.500;13.482;2024-03-23T09:31:50;100015.25;;;6.00;80.69
83563;BME280;73535;52.500;13.482;2024-03-23T09:34:16;100011.25;;;5.95;80.86
83563;BME280;73535;52.500;13.482;2024-03-23T09:36:41;100013.47;;;6.01;81.01
83563;BME280;73535;52.500;13.482;2024-03-23T09:39:07;100010.69;;;5.90;80.53
83563;BME280;73535;52.500;13.482;2024-03-23T09:41:34;100026.63;;;5.85;80.65
83563;BME280;73535;52.500;13.482;2024-03-23T09:43:59;100025.31;;;5.92;81.10
83563;BME280;73535;52.500;13.482;2024-03-23T09:46:26;100027.34;;;5.87;81.06
83563;BME280;73535;52.500;13.482;2024-03-23T09:48:51;100017.66;;;5.89;81.65
83563;BME280;73535;52.500;13.482;2024-03-23T09:51:16;100027.72;;;5.95;81.72
83563;BME280;73535;52.500;13.482;2024-03-23T09:53:42;100021.88;;;5.92;81.98
83563;BME280;73535;52.500;13.482;2024-03-23T09:56:07;100040.66;;;5.83;81.47
83563;BME280;73535;52.500;13.482;2024-03-23T09:58:33;100042.41;;;5.82;81.67
83563;BME280;73535;52.500;13.482;2024-03-23T10:00:58;100051.44;;;5.77;81.37
83563;BME280;73535;52.500;13.482;2024-03-23T10:03:24;100058.97;;;5.67;80.14
83563;BME280;73535;52.500;13.482;2024-03-23T10:06:03;100078.09;;;5.52;79.31
83563;BME280;73535;52.500;13.482;2024-03-23T10:08:29;100090.78;;;5.58;79.79
83563;BME280;73535;52.500;13.482;2024-03-23T10:10:56;100093.50;;;5.56;79.11
83563;BME280;73535;52.500;13.482;2024-03-23T10:13:25;100090.38;;;5.50;79.55
83563;BME280;73535;52.500;13.482;2024-03-23T10:15:55;100096.00;;;5.58;79.55
83563;BME280;73535;52.500;13.482;2024-03-23T10:18:21;100108.09;;;5.59;78.60
83563;BME280;73535;52.500;13.482;2024-03-23T10:20:52;100099.22;;;5.47;78.83
83563;BME280;73535;52.500;13.482;2024-03-23T10:23:25;100098.78;;;5.55;79.50
83563;BME280;73535;52.500;13.482;2024-03-23T10:25:50;100098.94;;;5.52;79.04
83563;BME280;73535;52.500;13.482;2024-03-23T10:28:15;100095.94;;;5.44;78.63
83563;BME280;73535;52.500;13.482;2024-03-23T10:30:41;100098.31;;;5.48;79.44
83563;BME280;73535;52.500;13.482;2024-03-23T10:33:10;100105.63;;;5.42;78.81
83563;BME280;73535;52.500;13.482;2024-03-23T10:35:37;100099.59;;;5.26;78.67
83563;BME280;73535;52.500;13.482;2024-03-23T10:38:06;100104.63;;;5.29;78.41
83563;BME280;73535;52.500;13.482;2024-03-23T10:40:35;100104.47;;;5.32;79.00
83563;BME280;73535;52.500;13.482;2024-03-23T10:43:00;100114.38;;;5.41;79.88
83563;BME280;73535;52.500;13.482;2024-03-23T10:45:27;100108.13;;;5.43;80.22
83563;BME280;73535;52.500;13.482;2024-03-23T10:47:52;100113.16;;;5.46;80.32
83563;BME280;73535;52.500;13.482;2024-03-23T10:50:18;100118.38;;;5.46;79.78
83563;BME280;73535;52.500;13.482;2024-03-23T10:52:46;100112.16;;;5.49;80.28
83563;BME280;73535;52.500;13.482;2024-03-23T10:55:13;100109.31;;;5.53;80.45
83563;BME280;73535;52.500;13.482;2024-03-23T10:57:44;100111.16;;;5.51;80.79
83563;BME280;73535;52.500;13.482;2024-03-23T11:00:12;100115.34;;;5.54;80.58
83563;BME280;73535;52.500;13.482;2024-03-23T11:02:38;100117.44;;;5.63;81.19
83563;BME280;73535;52.500;13.482;2024-03-23T11:07:51;100128.69;;;5.63;79.73
83563;BME280;73535;52.500;13.482;2024-03-23T11:10:28;100126.66;;;5.68;79.64
83563;BME280;73535;52.500;13.482;2024-03-23T11:12:55;100124.34;;;5.78;80.80
83563;BME280;73535;52.500;13.482;2024-03-23T11:15:20;100122.41;;;5.82;80.05
83563;BME280;73535;52.500;13.482;2024-03-23T11:18:05;100129.06;;;5.87;79.30
83563;BME280;73535;52.500;13.482;2024-03-23T11:20:33;100116.75;;;5.89;78.99
83563;BME280;73535;52.500;13.482;2024-03-23T11:22:59;100114.56;;;5.97;79.40
83563;BME280;73535;52.500;13.482;2024-03-23T11:25:26;100109.06;;;6.02;78.33
83563;BME280;73535;52.500;13.482;2024-03-23T11:27:52;100114.94;;;6.05;78.27
83563;BME280;73535;52.500;13.482;2024-03-23T11:30:20;100124.28;;;6.09;77.54
83563;BME280;73535;52.500;13.482;2024-03-23T11:32:48;100123.69;;;6.18;78.18
83563;BME280;73535;52.500;13.482;2024-03-23T11:38:11;100117.38;;;6.37;77.56
83563;BME280;73535;52.500;13.482;2024-03-23T11:40:38;100121.94;;;6.33;76.00
83563;BME280;73535;52.500;13.482;2024-03-23T11:43:05;100126.97;;;6.36;75.19
83563;BME280;73535;52.500;13.482;2024-03-23T11:45:35;100124.81;;;6.43;75.37
83563;BME280;73535;52.500;13.482;2024-03-23T11:48:02;100127.72;;;6.52;75.39
83563;BME280;73535;52.500;13.482;2024-03-23T11:50:27;100125.34;;;6.62;74.68
83563;BME280;73535;52.500;13.482;2024-03-23T11:52:52;100129.66;;;6.63;72.24
83563;BME280;73535;52.500;13.482;2024-03-23T11:55:18;100134.31;;;6.72;74.46
83563;BME280;73535;52.500;13.482;2024-03-23T11:57:43;100140.84;;;6.79;75.52
83563;BME280;73535;52.500;13.482;2024-03-23T12:00:28;100136.72;;;6.89;76.41
83563;BME280;73535;52.500;13.482;2024-03-23T12:03:00;100128.38;;;6.97;75.75
83563;BME280;73535;52.500;13.482;2024-03-23T12:05:26;100130.19;;;6.96;75.67
83563;BME280;73535;52.500;13.482;2024-03-23T12:07:51;100126.84;;;8.12;81.58
83563;BME280;73535;52.500;13.482;2024-03-23T12:10:19;100120.63;;;8.76;82.31
83563;BME280;73535;52.500;13.482;2024-03-23T12:12:44;100128.47;;;7.88;79.26
83563;BME280;73535;52.500;13.482;2024-03-23T12:15:10;100129.97;;;7.53;75.73
83563;BME280;73535;52.500;13.482;2024-03-23T12:17:36;100133.25;;;7.29;75.67
83563;BME280;73535;52.500;13.482;2024-03-23T12:20:01;100126.09;;;7.19;75.94
83563;BME280;73535;52.500;13.482;2024-03-23T12:22:26;100134.41;;;7.11;75.29
83563;BME280;73535;52.500;13.482;2024-03-23T12:24:52;100125.31;;;7.04;74.80
83563;BME280;73535;52.500;13.482;2024-03-23T12:27:17;100125.31;;;7.04;75.78
83563;BME280;73535;52.500;13.482;2024-03-23T12:29:43;100122.88;;;7.01;75.77
83563;BME280;73535;52.500;13.482;2024-03-23T12:32:11;100127.06;;;7.04;75.39
83563;BME280;73535;52.500;13.482;2024-03-23T12:34:36;100117.47;;;7.04;74.77
83563;BME280;73535;52.500;13.482;2024-03-23T12:37:02;100116.31;;;7.08;74.44
83563;BME280;73535;52.500;13.482;2024-03-23T12:39:27;100112.38;;;7.15;75.19
83563;BME280;73535;52.500;13.482;2024-03-23T12:41:52;100112.28;;;7.17;75.65
83563;BME280;73535;52.500;13.482;2024-03-23T12:44:18;100112.50;;;7.14;74.96
83563;BME280;73535;52.500;13.482;2024-03-23T12:46:44;100111.34;;;7.18;76.33
83563;BME280;73535;52.500;13.482;2024-03-23T12:49:09;100109.91;;;7.26;76.77
83563;BME280;73535;52.500;13.482;2024-03-23T12:51:35;100106.19;;;7.30;76.54
83563;BME280;73535;52.500;13.482;2024-03-23T12:54:00;100104.69;;;7.26;76.02
83563;BME280;73535;52.500;13.482;2024-03-23T12:56:25;100106.38;;;7.27;76.18
83563;BME280;73535;52.500;13.482;2024-03-23T12:58:53;100109.00;;;7.27;76.71
83563;BME280;73535;52.500;13.482;2024-03-23T13:01:19;100107.03;;;7.31;76.29
83563;BME280;73535;52.500;13.482;2024-03-23T13:03:46;100100.09;;;7.30;75.71
83563;BME280;73535;52.500;13.482;2024-03-23T13:06:11;100107.09;;;7.29;74.15
83563;BME280;73535;52.500;13.482;2024-03-23T13:08:37;100105.66;;;7.25;73.43
83563;BME280;73535;52.500;13.482;2024-03-23T13:11:02;100106.38;;;7.27;73.71
83563;BME280;73535;52.500;13.482;2024-03-23T13:13:28;100103.75;;;7.27;73.10
83563;BME280;73535;52.500;13.482;2024-03-23T13:15:53;100109.19;;;7.24;73.22
83563;BME280;73535;52.500;13.482;2024-03-23T13:18:18;100104.59;;;7.28;73.61
83563;BME280;73535;52.500;13.482;2024-03-23T13:20:44;100107.09;;;7.29;74.32
83563;BME280;73535;52.500;13.482;2024-03-23T13:23:09;100104.63;;;7.40;75.34
83563;BME280;73535;52.500;13.482;2024-03-23T13:25:34;100103.50;;;7.45;75.78
83563;BME280;73535;52.500;13.482;2024-03-23T13:27:59;100104.97;;;7.49;76.24
83563;BME280;73535;52.500;13.482;2024-03-23T13:30:26;100104.88;;;7.50;75.00
83563;BME280;73535;52.500;13.482;2024-03-23T13:32:51;100109.69;;;7.56;74.95
83563;BME280;73535;52.500;13.482;2024-03-23T13:35:16;100096.63;;;7.56;73.98
83563;BME280;73535;52.500;13.482;2024-03-23T13:37:41;100094.03;;;7.69;74.87
83563;BME280;73535;52.500;13.482;2024-03-23T13:40:07;100095.19;;;7.77;74.59
83563;BME280;73535;52.500;13.482;2024-03-23T13:42:33;100096.88;;;7.91;74.42